Aurora, North Carolina
Current Conditions -  °F | °C
As of 9:54 AM on Sunday 21 Dec 2014 (Local Time) from KEWN Reporting Station
Overcast Overcast  
Wind Chill: 36°   Ceiling: 6000
Heat Index: 41°   Visibility: 10mi
Dew Point: 34°   Wind: 7mph
Humidity: 76%   Direction: 20°NNE
Pressure: 30.34"   Gusts: NA
Location:  35.31°N, 76.79°W
Report Text: KEWN 211454Z 02006KT 10SM BKN060 OVC100 05/01 A3034 RMK AO2 SLP273 T00500011 53013
Loading
Personal Weather Stations






























Interactive Weather Map New forecast layout! Learn more

10-Day Weather Forecast

Advertisements
Track Severe Weather on mobile